Mercedes — PCMC — position and weather

sailwx.info

Track history (hours):
 
Tides and Currents Weather Stations Pressure Air Temp Water Temp Dewpoint Dewpoint Depression Visibility Wind Speed Wind Dir Waves Ship Positions

Mercedes (Netherlands)

Brig, built 2005.

Last reported at 2018-Oct-04 08:54 UTC. Time now 2018-Dec-12 05:16 UTC.
Position N 52°40' E 005°36'.
Warning: this ship's position is months out of date.

Length 47 m; draft 3.4 m.

Type: Sailing vessel. MMSI: 244595000.

Date/timePositionNaut miles runAvg speedWind from/ knotsBaromVisibWave heightAir tempDewpointWater temp
2018-Oct-04 08:54N 52°40' E 005°36'0 0.0
2018-Oct-04 08:30N 52°40' E 005°36'0 0.0
2018-Oct-04 08:00N 52°40' E 005°36'0 0.0
2018-Oct-04 07:27N 52°40' E 005°36'0 0.0
2018-Oct-04 07:03N 52°40' E 005°36'0 0.0
2018-Oct-04 06:57N 52°40' E 005°36'0 0.0
2018-Oct-04 06:27N 52°40' E 005°36'0 0.0
2018-Oct-04 06:03N 52°40' E 005°36'0 0.0
2018-Oct-04 06:00N 52°40' E 005°36'0 0.0
2018-Oct-04 05:30N 52°40' E 005°36'0 0.0
2018-Oct-04 05:03N 52°40' E 005°36'0 0.0
2018-Oct-04 04:57N 52°40' E 005°36'0 0.0
2018-Oct-04 04:27N 52°40' E 005°36'0 0.0
2018-Oct-04 04:03N 52°40' E 005°36'0 0.0
2018-Oct-04 04:00N 52°40' E 005°36'0 0.0
2018-Oct-04 03:30N 52°40' E 005°36'0 0.0
2018-Oct-04 03:03N 52°40' E 005°36'0 0.0
2018-Oct-04 03:00N 52°40' E 005°36'0 0.0
2018-Oct-04 02:27N 52°40' E 005°36'0 0.0
2018-Oct-04 02:03N 52°40' E 005°36'0 0.1
2018-Oct-04 02:00N 52°40' E 005°36'0 0.0
2018-Oct-04 01:30N 52°40' E 005°36'0 0.0
2018-Oct-04 01:03N 52°40' E 005°36'0 0.1
2018-Oct-04 01:00N 52°40' E 005°36'0 0.0
2018-Oct-04 00:30N 52°40' E 005°36'0 0.0
2018-Oct-04 00:03N 52°40' E 005°36'0 0.1
2018-Oct-03 23:57N 52°40' E 005°36'0 0.0
2018-Oct-03 23:30N 52°40' E 005°36'0 0.0
2018-Oct-03 23:03N 52°40' E 005°36'0 0.1
2018-Oct-03 23:00N 52°40' E 005°36'0 0.0
2018-Oct-03 22:30N 52°40' E 005°36'0 0.0
2018-Oct-03 22:00N 52°40' E 005°36'0 0.0
2018-Oct-03 21:30N 52°40' E 005°36'0 0.0
2018-Oct-03 21:03N 52°40' E 005°36'0 0.0
2018-Oct-03 21:00N 52°40' E 005°36'0 0.0
2018-Oct-03 20:30N 52°40' E 005°36'0 0.0
2018-Oct-03 19:57N 52°40' E 005°36'0 0.0
2018-Oct-03 19:30N 52°40' E 005°36'0 0.0
2018-Oct-03 19:00N 52°40' E 005°36'0 0.0
2018-Oct-03 18:30N 52°40' E 005°36'0 0.0
2018-Oct-03 18:03N 52°40' E 005°36'0 0.1
2018-Oct-03 18:00N 52°40' E 005°36'0 0.0
2018-Oct-03 17:30N 52°40' E 005°36'1 1.8
2018-Oct-03 17:03N 52°39' E 005°35'0 7.0
2018-Oct-03 17:00N 52°39' E 005°35'4 7.2
2018-Oct-03 16:31N 52°41' E 005°30'3 7.3
2018-Oct-03 16:03N 52°43' E 005°25'0 7.8
2018-Oct-03 16:00N 52°43' E 005°25'4 8.6
2018-Oct-03 15:30N 52°46' E 005°20'4 7.9
2018-Oct-03 15:04N 52°50' E 005°18'0 7.0
2018-Oct-03 15:00N 52°50' E 005°18'4 8.1
2018-Oct-03 14:30N 52°54' E 005°19'4 8.3
2018-Oct-03 14:04N 52°58' E 005°19'0 8.4
2018-Oct-03 14:01N 52°58' E 005°19'4 7.1
2018-Oct-03 13:30N 53°02' E 005°21'2 4.8
2018-Oct-03 13:01N 53°04' E 005°20'0 0.2
2018-Oct-03 12:59N 53°04' E 005°20'0 1.0
2018-Oct-03 12:29N 53°05' E 005°20'0 0.0
2018-Oct-03 12:02N 53°05' E 005°20'0 0.0
2018-Oct-03 11:59N 53°05' E 005°20'0 0.0
2018-Oct-03 11:29N 53°05' E 005°20'0 0.0
2018-Oct-03 11:02N 53°05' E 005°20'0 0.0
2018-Oct-03 10:56N 53°05' E 005°20'0 0.0
2018-Oct-03 10:29N 53°05' E 005°20'0 0.0
2018-Oct-03 10:02N 53°05' E 005°20'0 0.0
2018-Oct-03 09:59N 53°05' E 005°20'0 0.0
2018-Oct-03 09:29N 53°05' E 005°20'0 0.0
2018-Oct-03 09:02N 53°05' E 005°20'0 0.0
2018-Oct-03 08:59N 53°05' E 005°20'0 0.0
2018-Oct-03 08:23N 53°05' E 005°20'0 0.0
2018-Oct-03 08:02N 53°05' E 005°20'0 0.0
2018-Oct-03 07:59N 53°05' E 005°20'0 0.0
2018-Oct-03 07:29N 53°05' E 005°20'0 0.0
2018-Oct-03 07:02N 53°05' E 005°20'0 0.0
2018-Oct-03 06:59N 53°05' E 005°20'0 0.0
2018-Oct-03 06:29N 53°05' E 005°20'0 0.0
2018-Oct-03 06:02N 53°05' E 005°20'0 0.1
2018-Oct-03 05:59N 53°05' E 005°20'0 0.0
2018-Oct-03 05:29N 53°05' E 005°20'0 0.0
2018-Oct-03 05:02N 53°05' E 005°20'0 0.0
2018-Oct-03 04:59N 53°05' E 005°20'0 0.0
2018-Oct-03 04:29N 53°05' E 005°20'0 0.0
2018-Oct-03 04:02N 53°05' E 005°20'0 0.0
2018-Oct-03 03:59N 53°05' E 005°20'0 0.0
2018-Oct-03 03:29N 53°05' E 005°20'0 0.0
2018-Oct-03 03:02N 53°05' E 005°20'0 0.0
2018-Oct-03 02:59N 53°05' E 005°20'0 0.0
2018-Oct-03 02:29N 53°05' E 005°20'0 0.0
2018-Oct-03 02:02N 53°05' E 005°20'0 0.0
2018-Oct-03 01:59N 53°05' E 005°20'0 0.0
2018-Oct-03 01:29N 53°05' E 005°20'0 0.0
2018-Oct-03 01:02N 53°05' E 005°20'0 0.0
2018-Oct-03 00:59N 53°05' E 005°20'0 0.0
2018-Oct-03 00:29N 53°05' E 005°20'0 0.0
2018-Oct-03 00:02N 53°05' E 005°20'0 0.0
2018-Oct-02 23:59N 53°05' E 005°20'0 0.0
2018-Oct-02 23:29N 53°05' E 005°20'0 0.0
2018-Oct-02 23:02N 53°05' E 005°20'0 0.0
2018-Oct-02 22:59N 53°05' E 005°20'0 0.0
2018-Oct-02 22:29N 53°05' E 005°20'0 0.0
2018-Oct-02 22:02N 53°05' E 005°20'0 0.0
2018-Oct-02 21:59N 53°05' E 005°20'0 0.0
2018-Oct-02 21:29N 53°05' E 005°20'0 0.0
2018-Oct-02 21:02N 53°05' E 005°20'0 0.0
2018-Oct-02 20:59N 53°05' E 005°20'0 0.0
2018-Oct-02 20:29N 53°05' E 005°20'0 0.0
2018-Oct-02 20:02N 53°05' E 005°20'0 0.1
2018-Oct-02 19:59N 53°05' E 005°20'0 0.0
2018-Oct-02 19:29N 53°05' E 005°20'0 0.0
2018-Oct-02 18:59N 53°05' E 005°20'0 0.0
2018-Oct-02 18:29N 53°05' E 005°20'0 0.0
2018-Oct-02 18:02N 53°05' E 005°20'0 0.0
2018-Oct-02 17:59N 53°05' E 005°20'0 0.0
2018-Oct-02 17:29N 53°05' E 005°20'0 0.0
2018-Oct-02 17:02N 53°05' E 005°20'0 0.1
2018-Oct-02 16:59N 53°05' E 005°20'0 0.0
2018-Oct-02 16:29N 53°05' E 005°20'0 0.0
2018-Oct-02 16:02N 53°05' E 005°20'0 0.1
2018-Oct-02 15:59N 53°05' E 005°20'0 0.0
2018-Oct-02 15:29N 53°05' E 005°20'0 0.0
2018-Oct-02 14:59N 53°05' E 005°20'0 0.0
2018-Oct-02 14:02N 53°05' E 005°20'0 0.0
2018-Oct-02 13:59N 53°05' E 005°20'0 0.0
2018-Oct-02 13:29N 53°05' E 005°20'0 0.0
2018-Oct-02 13:02N 53°05' E 005°20'0 0.0
2018-Oct-02 12:59N 53°05' E 005°20'0 0.0
2018-Oct-02 12:29N 53°05' E 005°20'0 0.0
2018-Oct-02 12:01N 53°05' E 005°20'0 0.0
2018-Oct-02 11:59N 53°05' E 005°20'0 0.0
2018-Oct-02 11:28N 53°05' E 005°20'0 0.0
2018-Oct-02 11:01N 53°05' E 005°20'0 0.0
2018-Oct-02 10:55N 53°05' E 005°20'0 0.0
2018-Oct-02 10:28N 53°05' E 005°20'0 0.0
2018-Oct-02 10:01N 53°05' E 005°20'0 0.1
2018-Oct-02 09:58N 53°05' E 005°20'0 0.0
2018-Oct-02 09:28N 53°05' E 005°20'0 0.0
2018-Oct-02 09:01N 53°05' E 005°20'0 0.0
2018-Oct-02 08:58N 53°05' E 005°20'0 0.0
2018-Oct-02 08:28N 53°05' E 005°20'0 0.0
2018-Oct-02 08:01N 53°05' E 005°20'0 0.0
2018-Oct-02 07:58N 53°05' E 005°20'0 0.0
2018-Oct-02 07:28N 53°05' E 005°20'0 0.0
2018-Oct-02 07:01N 53°05' E 005°20'0 0.0
2018-Oct-02 06:58N 53°05' E 005°20'0 0.0
2018-Oct-02 06:28N 53°05' E 005°20'0 0.0
2018-Oct-02 06:01N 53°05' E 005°20'0 0.0
2018-Oct-02 05:58N 53°05' E 005°20'0 0.0
2018-Oct-02 05:28N 53°05' E 005°20'0 0.0
2018-Oct-02 05:01N 53°05' E 005°20'0 0.0
2018-Oct-02 04:58N 53°05' E 005°20'0 0.0
2018-Oct-02 04:28N 53°05' E 005°20'0 0.0
2018-Oct-02 04:01N 53°05' E 005°20'0 0.0
2018-Oct-02 03:58N 53°05' E 005°20'0 0.0
2018-Oct-02 03:28N 53°05' E 005°20'0 0.0
2018-Oct-02 03:01N 53°05' E 005°20'0 0.1
2018-Oct-02 02:58N 53°05' E 005°20'0 0.0
2018-Oct-02 02:28N 53°05' E 005°20'0 0.0
2018-Oct-02 02:01N 53°05' E 005°20'0 0.0
2018-Oct-02 01:58N 53°05' E 005°20'0 0.0
2018-Oct-02 01:28N 53°05' E 005°20'0 0.0
2018-Oct-02 01:01N 53°05' E 005°20'0 0.0
2018-Oct-02 00:58N 53°05' E 005°20'0 0.0
2018-Oct-02 00:28N 53°05' E 005°20'0 0.0
2018-Oct-02 00:01N 53°05' E 005°20'0 0.0
2018-Oct-01 23:58N 53°05' E 005°20'0 0.0
2018-Oct-01 23:28N 53°05' E 005°20'0 0.0
2018-Oct-01 23:01N 53°05' E 005°20'0 0.0
2018-Oct-01 22:58N 53°05' E 005°20'0 0.0
2018-Oct-01 22:28N 53°05' E 005°20'0 0.0
2018-Oct-01 22:01N 53°05' E 005°20'0 0.0
2018-Oct-01 21:58N 53°05' E 005°20'0 0.0
2018-Oct-01 21:28N 53°05' E 005°20'0 0.0
2018-Oct-01 21:01N 53°05' E 005°20'0 0.0
2018-Oct-01 20:58N 53°05' E 005°20'0 0.0
2018-Oct-01 20:28N 53°05' E 005°20'0 0.0
2018-Oct-01 20:01N 53°05' E 005°20'0 0.0
2018-Oct-01 19:58N 53°05' E 005°20'0 0.0
2018-Oct-01 19:28N 53°05' E 005°20'0 0.0
2018-Oct-01 19:01N 53°05' E 005°20'0 0.0
2018-Oct-01 18:58N 53°05' E 005°20'0 0.0
2018-Oct-01 18:28N 53°05' E 005°20'0 0.0
2018-Oct-01 18:01N 53°05' E 005°20'0 0.0
2018-Oct-01 17:58N 53°05' E 005°20'0 0.0
2018-Oct-01 17:28N 53°05' E 005°20'0 0.0
2018-Oct-01 16:58N 53°05' E 005°20'0 0.0
2018-Oct-01 16:28N 53°05' E 005°20'0 0.0
2018-Oct-01 16:01N 53°05' E 005°20'0 0.0
2018-Oct-01 15:58N 53°05' E 005°20'0 0.0
2018-Oct-01 15:28N 53°05' E 005°20'0 0.0
2018-Oct-01 15:01N 53°05' E 005°20'0 0.0
2018-Oct-01 14:58N 53°05' E 005°20'0 0.0
2018-Oct-01 14:28N 53°05' E 005°20'0 0.0
2018-Oct-01 13:58N 53°05' E 005°20'0 0.0
2018-Oct-01 13:28N 53°05' E 005°20'0 0.0
2018-Oct-01 13:01N 53°05' E 005°20'0 0.0
2018-Oct-01 12:58N 53°05' E 005°20'0 0.0
2018-Oct-01 12:28N 53°05' E 005°20'0 0.0
2018-Oct-01 12:01N 53°05' E 005°20'0 0.0
2018-Oct-01 11:58N 53°05' E 005°20'0 0.0
2018-Oct-01 11:28N 53°05' E 005°20'0 0.0
2018-Oct-01 11:01N 53°05' E 005°20'0 0.0
2018-Oct-01 10:58N 53°05' E 005°20'0 0.0
2018-Oct-01 10:28N 53°05' E 005°20'0 0.0
2018-Oct-01 10:01N 53°05' E 005°20'0 0.0
2018-Oct-01 09:58N 53°05' E 005°20'0 0.0
2018-Oct-01 09:28N 53°05' E 005°20'0 0.0
2018-Oct-01 08:58N 53°05' E 005°20'0 0.0
2018-Oct-01 08:28N 53°05' E 005°20'0 0.0
2018-Oct-01 08:01N 53°05' E 005°20'0 0.0
2018-Oct-01 07:58N 53°05' E 005°20'0 0.0
2018-Oct-01 07:28N 53°05' E 005°20'0 0.0
2018-Oct-01 07:01N 53°05' E 005°20'0 0.1
2018-Oct-01 06:58N 53°05' E 005°20'0 0.0
2018-Oct-01 06:28N 53°05' E 005°20'0 0.0
2018-Oct-01 06:01N 53°05' E 005°20'0 0.0
2018-Oct-01 05:58N 53°05' E 005°20'0 0.0
2018-Oct-01 05:28N 53°05' E 005°20'0 0.0
2018-Oct-01 05:01N 53°05' E 005°20'0 0.0
2018-Oct-01 04:58N 53°05' E 005°20'0 0.0
2018-Oct-01 04:28N 53°05' E 005°20'0 0.0
2018-Oct-01 04:01N 53°05' E 005°20'0 0.0
2018-Oct-01 03:58N 53°05' E 005°20'0 0.0
2018-Oct-01 03:28N 53°05' E 005°20'0 0.0
2018-Oct-01 03:01N 53°05' E 005°20'0 0.0
2018-Oct-01 02:58N 53°05' E 005°20'0 0.0
2018-Oct-01 02:28N 53°05' E 005°20'0 0.0
2018-Oct-01 02:01N 53°05' E 005°20'0 0.0
2018-Oct-01 01:58N 53°05' E 005°20'0 0.0
2018-Oct-01 01:28N 53°05' E 005°20'0 0.0
2018-Oct-01 01:01N 53°05' E 005°20'0 0.0
2018-Oct-01 00:58N 53°05' E 005°20'0 0.0
2018-Oct-01 00:28N 53°05' E 005°20'0 0.0
2018-Oct-01 00:01N 53°05' E 005°20'0 0.0
2018-Sep-30 23:58N 53°05' E 005°20'0 0.0
2018-Sep-30 23:28N 53°05' E 005°20'0 0.0
2018-Sep-30 23:01N 53°05' E 005°20'0 0.0
2018-Sep-30 22:58N 53°05' E 005°20'0 0.0
2018-Sep-30 22:30N 53°05' E 005°20'1 2.6
2018-Sep-30 22:03N 53°05' E 005°18'0 7.2
2018-Sep-30 22:00N 53°05' E 005°18'4 9.0
2018-Sep-30 21:30N 53°03' E 005°11'4 9.5
2018-Sep-30 21:03N 53°02' E 005°04'0 9.8
2018-Sep-30 21:00N 53°03' E 005°03'5 9.5
2018-Sep-30 20:30N 53°04' E 004°55'511.0
2018-Sep-30 20:03N 53°00' E 004°49'111.2
2018-Sep-30 20:00N 52°60' E 004°49'611.5
2018-Sep-30 19:30N 52°56' E 004°41'4 8.2
2018-Sep-30 19:03N 52°54' E 004°36'0 8.5
2018-Sep-30 19:00N 52°54' E 004°36'4 7.2
2018-Sep-30 18:30N 52°58' E 004°33'3 7.7
2018-Sep-30 18:03N 53°01' E 004°35'0 8.0
2018-Sep-30 18:00N 53°01' E 004°35'4 8.4
2018-Sep-30 17:30N 53°05' E 004°38'4 9.0
2018-Sep-30 17:03N 53°09' E 004°40'0 9.2
2018-Sep-30 17:00N 53°09' E 004°41'8 9.8
2018-Sep-30 16:14N 53°16' E 004°47'5 9.8
2018-Sep-30 15:45N 53°19' E 004°52'310.1
2018-Sep-30 15:29N 53°21' E 004°55'4 9.8
2018-Sep-30 15:03N 53°25' E 005°00'0 9.9
2018-Sep-30 15:00N 53°25' E 005°01'6 9.4
2018-Sep-30 14:21N 53°29' E 005°09'19 6.9
2018-Sep-30 11:33N 53°40' E 005°35'0 6.2
2018-Sep-30 11:29N 53°40' E 005°36'87 5.6
2018-Sep-29 20:03N 54°02' E 007°59'3 6.8
2018-Sep-29 19:40N 54°01' E 008°03'1 7.1
2018-Sep-29 19:27N 54°01' E 008°06'3 7.5
2018-Sep-29 19:03N 54°01' E 008°11'0 7.7
2018-Sep-29 19:00N 54°01' E 008°12'4 7.8
2018-Sep-29 18:30N 54°00' E 008°18'4 8.5
2018-Sep-29 18:03N 53°59' E 008°25'1 9.3
2018-Sep-29 18:00N 53°59' E 008°25'510.4
2018-Sep-29 17:30N 53°58' E 008°34'410.0
2018-Sep-29 17:03N 53°56' E 008°40'110.8
2018-Sep-29 17:00N 53°55' E 008°41'5 9.8
2018-Sep-29 16:30N 53°51' E 008°46'4 8.7
2018-Sep-29 16:03N 53°51' E 008°52'0 6.5
2018-Sep-29 16:00N 53°51' E 008°53'3 6.7
2018-Sep-29 15:30N 53°51' E 008°58'3 6.6
2018-Sep-29 15:03N 53°52' E 009°03'0 5.6
2018-Sep-29 15:00N 53°52' E 009°04'3 6.5
2018-Sep-29 14:30N 53°53' E 009°09'1 2.0
2018-Sep-29 14:00N 53°54' E 009°10'3 6.2
2018-Sep-29 13:29N 53°57' E 009°13'1 3.4
2018-Sep-29 13:03N 53°58' E 009°15'1 9.3
2018-Sep-29 12:59N 53°58' E 009°16'4 8.9
2018-Sep-29 12:30N 54°02' E 009°18'5 8.9
2018-Sep-29 11:59N 54°07' E 009°20'4 8.1
2018-Sep-29 11:30N 54°10' E 009°24'4 8.6
2018-Sep-29 11:03N 54°11' E 009°30'0 8.9
2018-Sep-29 11:00N 54°11' E 009°31'4 8.4
2018-Sep-29 10:30N 54°14' E 009°36'4 8.2
2018-Sep-29 10:03N 54°17' E 009°39'0 8.6
2018-Sep-29 10:00N 54°17' E 009°40'4 7.8
2018-Sep-29 09:30N 54°20' E 009°45'4 8.3
2018-Sep-29 09:03N 54°22' E 009°50'0 8.9
2018-Sep-29 09:00N 54°22' E 009°51'4 8.6
2018-Sep-29 08:30N 54°21' E 009°58'4 8.4
2018-Sep-29 08:03N 54°22' E 010°04'0 8.5
2018-Sep-29 08:00N 54°22' E 010°05'2 4.1
2018-Sep-29 07:30N 54°22' E 010°08'0 0.5
2018-Sep-29 07:03N 54°22' E 010°09'0 6.0
2018-Sep-29 07:00N 54°22' E 010°09'0 0.9
2018-Sep-29 06:30N 54°22' E 010°10'0 0.2
2018-Sep-29 06:03N 54°22' E 010°10'0 0.5
2018-Sep-29 06:00N 54°22' E 010°10'0 1.0
2018-Sep-29 05:30N 54°22' E 010°09'4 8.2
2018-Sep-29 05:03N 54°25' E 010°12'0 8.7
2018-Sep-29 05:00N 54°26' E 010°13'4 7.9
2018-Sep-29 04:30N 54°28' E 010°18'4 8.5
2018-Sep-29 04:03N 54°29' E 010°25'0 8.5
2018-Sep-29 04:00N 54°29' E 010°25'4 8.4
2018-Sep-29 03:30N 54°30' E 010°32'4 8.3
2018-Sep-29 03:03N 54°31' E 010°39'1 8.1
2018-Sep-29 02:55N 54°31' E 010°40'3 8.0
2018-Sep-29 02:30N 54°32' E 010°46'3 7.9
2018-Sep-29 02:03N 54°33' E 010°52'1 7.9
2018-Sep-29 02:00N 54°33' E 010°53'4 7.8
2018-Sep-29 01:30N 54°33' E 010°59'3 7.6
2018-Sep-29 01:03N 54°33' E 011°05'0 7.4
2018-Sep-29 01:00N 54°33' E 011°06'4 7.5
2018-Sep-29 00:26N 54°32' E 011°13'3 7.4
2018-Sep-29 00:03N 54°31' E 011°17'0 7.1
2018-Sep-29 00:00N 54°30' E 011°17'4 7.1
2018-Sep-28 23:28N 54°28' E 011°23'3 7.0
2018-Sep-28 23:03N 54°27' E 011°27'0 7.0
2018-Sep-28 23:00N 54°27' E 011°28'12 6.9
2018-Sep-28 21:20N 54°20' E 011°44'2 6.8
2018-Sep-28 21:03N 54°19' E 011°46'0 7.2
2018-Sep-28 21:00N 54°19' E 011°47'4 7.3
2018-Sep-28 20:30N 54°17' E 011°52'3 6.5
2018-Sep-28 20:03N 54°15' E 011°56'0 6.5
2018-Sep-28 20:00N 54°15' E 011°57'3 6.1
2018-Sep-28 19:30N 54°13' E 012°01'3 5.6
2018-Sep-28 19:03N 54°12' E 012°05'0 6.5
2018-Sep-28 19:00N 54°11' E 012°05'4 6.6
2018-Sep-28 18:28N 54°08' E 012°06'2 5.4
2018-Sep-28 18:02N 54°06' E 012°07'0 5.4
2018-Sep-28 18:00N 54°06' E 012°07'0 0.3
2018-Sep-28 17:30N 54°06' E 012°08'0 0.0
2018-Sep-28 17:03N 54°06' E 012°08'0 0.0
2018-Sep-28 17:00N 54°06' E 012°08'0 0.0
2018-Sep-28 16:30N 54°06' E 012°08'0 0.0
2018-Sep-28 15:33N 54°06' E 012°08'0 0.0
2018-Sep-28 15:27N 54°06' E 012°08'0 0.0
2018-Sep-28 15:03N 54°06' E 012°08'0 0.1
2018-Sep-28 15:00N 54°06' E 012°08'0 0.0
2018-Sep-28 14:09N 54°06' E 012°08'0 0.0
2018-Sep-28 13:30N 54°06' E 012°08'0 0.0
2018-Sep-28 13:03N 54°06' E 012°08'0 0.0
2018-Sep-28 13:00N 54°06' E 012°08'0 0.0
2018-Sep-28 12:21N 54°06' E 012°08'0 0.0
2018-Sep-28 11:57N 54°06' E 012°08'0 0.0
2018-Sep-28 10:12N 54°06' E 012°08'0 0.0
2018-Sep-28 10:03N 54°06' E 012°08'0 0.1
2018-Sep-28 10:00N 54°06' E 012°08'0 0.0
2018-Sep-28 09:06N 54°06' E 012°08'0 0.0
2018-Sep-28 09:03N 54°06' E 012°08'0 0.0
2018-Sep-28 09:00N 54°06' E 012°08'0 0.0
2018-Sep-28 08:30N 54°06' E 012°08'0 0.0
2018-Sep-28 08:00N 54°06' E 012°08'0 0.0
2018-Sep-28 07:21N 54°06' E 012°08'0 0.1
2018-Sep-28 07:03N 54°06' E 012°08'0 0.1
2018-Sep-28 07:00N 54°06' E 012°08'0 0.0
2018-Sep-28 06:30N 54°06' E 012°08'0 0.0
2018-Sep-28 06:00N 54°06' E 012°08'0 0.0
2018-Sep-28 05:27N 54°06' E 012°08'0 0.0
2018-Sep-28 05:00N 54°06' E 012°08'0 0.0
2018-Sep-28 04:30N 54°06' E 012°08'0 0.0
2018-Sep-28 04:03N 54°06' E 012°08'0 0.0
2018-Sep-28 03:54N 54°06' E 012°08'0 0.0
2018-Sep-28 03:24N 54°06' E 012°08'0 0.0
2018-Sep-28 02:57N 54°06' E 012°08'0 0.0
2018-Sep-28 02:24N 54°06' E 012°08'0 0.0
2018-Sep-28 02:03N 54°06' E 012°08'0 0.0
2018-Sep-28 01:54N 54°06' E 012°08'0 0.0
2018-Sep-28 00:27N 54°06' E 012°08'0 0.0
2018-Sep-27 23:57N 54°06' E 012°08'0 0.0
2018-Sep-27 23:27N 54°06' E 012°08'0 0.0
2018-Sep-27 23:00N 54°06' E 012°08'0 0.0
2018-Sep-27 22:27N 54°06' E 012°08'0 0.0
2018-Sep-27 20:27N 54°06' E 012°08'0 0.0
2018-Sep-27 20:00N 54°06' E 012°08'0 0.0
2018-Sep-27 19:30N 54°06' E 012°08'0 0.0
2018-Sep-27 19:03N 54°06' E 012°08'0 0.1
2018-Sep-27 19:00N 54°06' E 012°08'0 0.0
2018-Sep-27 18:30N 54°06' E 012°08'0 0.0
2018-Sep-27 18:00N 54°06' E 012°08'0 0.0
2018-Sep-27 17:30N 54°06' E 012°08'0 0.0
2018-Sep-27 17:03N 54°06' E 012°08'0 0.0
2018-Sep-27 16:54N 54°06' E 012°08'0 0.0
2018-Sep-27 16:12N 54°06' E 012°08'0 0.0
2018-Sep-27 16:00N 54°06' E 012°08'0 0.0
2018-Sep-27 15:30N 54°06' E 012°08'0 0.0
2018-Sep-27 15:00N 54°06' E 012°08'0 0.0
2018-Sep-27 14:21N 54°06' E 012°08'0 0.0
2018-Sep-27 13:54N 54°06' E 012°08'0 0.0
2018-Sep-27 13:30N 54°06' E 012°08'0 0.0
2018-Sep-27 13:03N 54°06' E 012°08'0 0.0
2018-Sep-27 13:00N 54°06' E 012°08'0 0.0
2018-Sep-27 10:42N 54°06' E 012°08'0 0.0
2018-Sep-27 10:15N 54°06' E 012°08'0 0.0
2018-Sep-27 09:57N 54°06' E 012°08'0 0.0
2018-Sep-27 09:12N 54°06' E 012°08'0 0.0
2018-Sep-27 09:00N 54°06' E 012°08'0 0.0
2018-Sep-27 08:12N 54°06' E 012°08'0 0.0
2018-Sep-27 07:57N 54°06' E 012°08'0 0.0
2018-Sep-27 07:30N 54°06' E 012°08'0 0.0
2018-Sep-27 06:54N 54°06' E 012°08'0 0.0
2018-Sep-27 06:30N 54°06' E 012°08'0 0.0
2018-Sep-27 06:03N 54°06' E 012°08'0 0.0
2018-Sep-27 05:57N 54°06' E 012°08'0 0.0
2018-Sep-27 05:27N 54°06' E 012°08'0 0.0
2018-Sep-27 05:03N 54°06' E 012°08'0 0.0
2018-Sep-27 04:54N 54°06' E 012°08'0 0.0
2018-Sep-27 04:30N 54°06' E 012°08'0 0.0
2018-Sep-27 04:03N 54°06' E 012°08'0 0.0
2018-Sep-27 03:39N 54°06' E 012°08'0 0.0
2018-Sep-27 03:18N 54°06' E 012°08'0 0.0
2018-Sep-27 02:12N 54°06' E 012°08'0 0.0
2018-Sep-27 02:00N 54°06' E 012°08'0 0.0
2018-Sep-27 01:30N 54°06' E 012°08'0 0.0
2018-Sep-27 01:03N 54°06' E 012°08'0 0.0
2018-Sep-27 00:57N 54°06' E 012°08'0 0.0
2018-Sep-27 00:30N 54°06' E 012°08'0 0.0
2018-Sep-27 00:03N 54°06' E 012°08'0 0.0
2018-Sep-26 23:57N 54°06' E 012°08'0 0.0
2018-Sep-26 22:50N 54°06' E 012°08'0 0.0
2018-Sep-26 22:29N 54°06' E 012°08'0 0.0
2018-Sep-26 22:02N 54°06' E 012°08'0 0.0
2018-Sep-26 21:56N 54°06' E 012°08'0 0.0
2018-Sep-26 21:26N 54°06' E 012°08'0 0.0
2018-Sep-26 21:02N 54°06' E 012°08'0 0.0
2018-Sep-26 20:59N 54°06' E 012°08'0 0.0
2018-Sep-26 20:29N 54°06' E 012°08'0 0.0
2018-Sep-26 19:59N 54°06' E 012°08'0 0.0
2018-Sep-26 19:26N 54°06' E 012°08'0 0.0
2018-Sep-26 19:02N 54°06' E 012°08'0 0.0
2018-Sep-26 18:59N 54°06' E 012°08'0 0.0
2018-Sep-26 18:29N 54°06' E 012°08'0 0.0
2018-Sep-26 18:02N 54°06' E 012°08'0 0.0
2018-Sep-26 17:50N 54°06' E 012°08'0 0.0
2018-Sep-26 17:23N 54°06' E 012°08'0 0.0
2018-Sep-26 16:53N 54°06' E 012°08'0 0.0
2018-Sep-26 16:26N 54°06' E 012°08'0 0.0
2018-Sep-26 15:56N 54°06' E 012°08'0 0.0
2018-Sep-26 15:26N 54°06' E 012°08'0 0.0
2018-Sep-26 15:02N 54°06' E 012°08'0 0.0
2018-Sep-26 14:38N 54°06' E 012°08'0 0.0
2018-Sep-26 14:23N 54°06' E 012°08'0 0.0
2018-Sep-26 13:11N 54°06' E 012°08'0 0.0
2018-Sep-26 12:53N 54°06' E 012°08'0 0.0
2018-Sep-26 12:29N 54°06' E 012°08'0 0.0
2018-Sep-26 12:02N 54°06' E 012°08'0 0.0
2018-Sep-26 11:44N 54°06' E 012°08'0 0.0
2018-Sep-26 11:29N 54°06' E 012°08'0 0.0
2018-Sep-26 10:53N 54°06' E 012°08'0 0.0
2018-Sep-26 10:23N 54°06' E 012°08'0 0.0
2018-Sep-26 10:02N 54°06' E 012°08'0 0.0
2018-Sep-26 09:59N 54°06' E 012°08'0 0.0
2018-Sep-26 09:29N 54°06' E 012°08'0 0.0
2018-Sep-26 08:53N 54°06' E 012°08'0 0.0
2018-Sep-26 08:08N 54°06' E 012°08'0 0.0
2018-Sep-26 08:02N 54°06' E 012°08'0 0.0
2018-Sep-26 07:59N 54°06' E 012°08'0 0.0
2018-Sep-26 07:26N 54°06' E 012°08'0 0.0
2018-Sep-26 07:02N 54°06' E 012°08'0 0.0
2018-Sep-26 06:47N 54°06' E 012°08'0 0.0
2018-Sep-26 06:26N 54°06' E 012°08'0 0.0
2018-Sep-26 04:41N 54°06' E 012°08'0 0.0
2018-Sep-26 04:17N 54°06' E 012°08'0 0.0
2018-Sep-26 03:59N 54°06' E 012°08'0 0.0
2018-Sep-26 03:26N 54°06' E 012°08'0 0.0
2018-Sep-26 02:56N 54°06' E 012°08'0 0.0
2018-Sep-26 02:29N 54°06' E 012°08'0 0.0
2018-Sep-26 02:02N 54°06' E 012°08'0 0.1
2018-Sep-26 01:59N 54°06' E 012°08'0 0.0
2018-Sep-26 00:32N 54°06' E 012°08'0 0.0
2018-Sep-26 00:16N 54°06' E 012°08'0 0.5
2018-Sep-26 00:03N 54°06' E 012°07'0 0.9
2018-Sep-26 00:00N 54°06' E 012°07'3 6.8
2018-Sep-25 23:30N 54°09' E 012°06'3 7.2
2018-Sep-25 23:03N 54°12' E 012°05'0 8.6
2018-Sep-25 23:00N 54°13' E 012°05'4 7.9
2018-Sep-25 22:29N 54°16' E 012°07'3 7.1
2018-Sep-25 22:03N 54°19' E 012°09'0 7.0
2018-Sep-25 22:00N 54°20' E 012°09'69 7.9
2018-Sep-25 13:16N 55°01' E 013°45'2 8.4
2018-Sep-25 13:03N 55°02' E 013°48'1 8.6
2018-Sep-25 12:59N 55°02' E 013°49'4 8.6
2018-Sep-25 12:30N 55°03' E 013°56'4 8.5
2018-Sep-25 12:03N 55°05' E 014°02'0 8.6
2018-Sep-25 12:00N 55°05' E 014°02'5 9.0
2018-Sep-25 11:30N 55°08' E 014°08'4 9.4
2018-Sep-25 11:03N 55°11' E 014°13'0 9.6
2018-Sep-25 11:00N 55°11' E 014°13'5 9.5
2018-Sep-25 10:30N 55°15' E 014°19'4 9.0
2018-Sep-25 10:03N 55°18' E 014°24'1 9.0
2018-Sep-25 10:00N 55°18' E 014°24'5 9.3
2018-Sep-25 09:30N 55°22' E 014°29'4 9.3
2018-Sep-25 09:03N 55°25' E 014°34'0 8.9
2018-Sep-25 09:00N 55°26' E 014°35'4 8.8
2018-Sep-25 08:30N 55°29' E 014°40'4 9.0
2018-Sep-25 08:03N 55°31' E 014°46'0 9.2
2018-Sep-25 08:00N 55°31' E 014°47'5 9.1
2018-Sep-25 07:30N 55°33' E 014°54'4 9.1
2018-Sep-25 07:03N 55°35' E 015°00'0 8.9
2018-Sep-25 07:00N 55°35' E 015°01'5 9.1
2018-Sep-25 06:30N 55°38' E 015°08'4 9.0
2018-Sep-25 06:03N 55°40' E 015°14'0 8.7
2018-Sep-25 06:00N 55°40' E 015°15'4 8.9
2018-Sep-25 05:30N 55°42' E 015°21'4 8.8
2018-Sep-25 05:03N 55°44' E 015°28'0 8.3
2018-Sep-25 05:00N 55°44' E 015°28'4 8.7
2018-Sep-25 04:30N 55°46' E 015°35'4 8.8
2018-Sep-25 04:03N 55°48' E 015°41'0 9.2
2018-Sep-25 04:00N 55°48' E 015°42'5 9.3
2018-Sep-25 03:30N 55°51' E 015°49'4 9.2
2018-Sep-25 03:03N 55°53' E 015°56'0 9.1
2018-Sep-25 03:00N 55°53' E 015°56'5 9.3
2018-Sep-25 02:30N 55°55' E 016°04'4 9.5
2018-Sep-25 02:03N 55°57' E 016°10'0 9.7
2018-Sep-25 02:00N 55°57' E 016°11'5 9.5
2018-Sep-25 01:30N 55°60' E 016°18'4 9.2
2018-Sep-25 01:03N 56°02' E 016°25'0 9.2
2018-Sep-25 01:00N 56°02' E 016°26'4 9.0
2018-Sep-25 00:30N 56°04' E 016°32'4 8.9
2018-Sep-25 00:03N 56°06' E 016°39'0 8.8
2018-Sep-25 00:00N 56°07' E 016°39'5 9.0
2018-Sep-24 23:30N 56°09' E 016°46'  
Track history (hours):
 
Tides and Currents Weather Stations Pressure Air Temp Water Temp Dewpoint Dewpoint Depression Visibility Wind Speed Wind Dir Waves Ship Positions

Mercedes (Netherlands)

Brig, built 2005.

Last reported at 2018-Oct-04 08:54 UTC. Time now 2018-Dec-12 05:16 UTC.
Position N 52°40' E 005°36'.
Warning: this ship's position is months out of date.

Length 47 m; draft 3.4 m.

Type: Sailing vessel. MMSI: 244595000.

Date/timePositionNaut miles runAvg speedWind from/ knotsBaromVisibWave heightAir tempDewpointWater temp
2018-Oct-04 08:54N 52°40' E 005°36'0 0.0
2018-Oct-04 08:30N 52°40' E 005°36'0 0.0
2018-Oct-04 08:00N 52°40' E 005°36'0 0.0
2018-Oct-04 07:27N 52°40' E 005°36'0 0.0
2018-Oct-04 07:03N 52°40' E 005°36'0 0.0
2018-Oct-04 06:57N 52°40' E 005°36'0 0.0
2018-Oct-04 06:27N 52°40' E 005°36'0 0.0
2018-Oct-04 06:03N 52°40' E 005°36'0 0.0
2018-Oct-04 06:00N 52°40' E 005°36'0 0.0
2018-Oct-04 05:30N 52°40' E 005°36'0 0.0
2018-Oct-04 05:03N 52°40' E 005°36'0 0.0
2018-Oct-04 04:57N 52°40' E 005°36'0 0.0
2018-Oct-04 04:27N 52°40' E 005°36'0 0.0
2018-Oct-04 04:03N 52°40' E 005°36'0 0.0
2018-Oct-04 04:00N 52°40' E 005°36'0 0.0
2018-Oct-04 03:30N 52°40' E 005°36'0 0.0
2018-Oct-04 03:03N 52°40' E 005°36'0 0.0
2018-Oct-04 03:00N 52°40' E 005°36'0 0.0
2018-Oct-04 02:27N 52°40' E 005°36'0 0.0
2018-Oct-04 02:03N 52°40' E 005°36'0 0.1
2018-Oct-04 02:00N 52°40' E 005°36'0 0.0
2018-Oct-04 01:30N 52°40' E 005°36'0 0.0
2018-Oct-04 01:03N 52°40' E 005°36'0 0.1
2018-Oct-04 01:00N 52°40' E 005°36'0 0.0
2018-Oct-04 00:30N 52°40' E 005°36'0 0.0
2018-Oct-04 00:03N 52°40' E 005°36'0 0.1
2018-Oct-03 23:57N 52°40' E 005°36'0 0.0
2018-Oct-03 23:30N 52°40' E 005°36'0 0.0
2018-Oct-03 23:03N 52°40' E 005°36'0 0.1
2018-Oct-03 23:00N 52°40' E 005°36'0 0.0
2018-Oct-03 22:30N 52°40' E 005°36'0 0.0
2018-Oct-03 22:00N 52°40' E 005°36'0 0.0
2018-Oct-03 21:30N 52°40' E 005°36'0 0.0
2018-Oct-03 21:03N 52°40' E 005°36'0 0.0
2018-Oct-03 21:00N 52°40' E 005°36'0 0.0
2018-Oct-03 20:30N 52°40' E 005°36'0 0.0
2018-Oct-03 19:57N 52°40' E 005°36'0 0.0
2018-Oct-03 19:30N 52°40' E 005°36'0 0.0
2018-Oct-03 19:00N 52°40' E 005°36'0 0.0
2018-Oct-03 18:30N 52°40' E 005°36'0 0.0
2018-Oct-03 18:03N 52°40' E 005°36'0 0.1
2018-Oct-03 18:00N 52°40' E 005°36'0 0.0
2018-Oct-03 17:30N 52°40' E 005°36'1 1.8
2018-Oct-03 17:03N 52°39' E 005°35'0 7.0
2018-Oct-03 17:00N 52°39' E 005°35'4 7.2
2018-Oct-03 16:31N 52°41' E 005°30'3 7.3
2018-Oct-03 16:03N 52°43' E 005°25'0 7.8
2018-Oct-03 16:00N 52°43' E 005°25'4 8.6
2018-Oct-03 15:30N 52°46' E 005°20'4 7.9
2018-Oct-03 15:04N 52°50' E 005°18'0 7.0
2018-Oct-03 15:00N 52°50' E 005°18'4 8.1
2018-Oct-03 14:30N 52°54' E 005°19'4 8.3
2018-Oct-03 14:04N 52°58' E 005°19'0 8.4
2018-Oct-03 14:01N 52°58' E 005°19'4 7.1
2018-Oct-03 13:30N 53°02' E 005°21'2 4.8
2018-Oct-03 13:01N 53°04' E 005°20'0 0.2
2018-Oct-03 12:59N 53°04' E 005°20'0 1.0
2018-Oct-03 12:29N 53°05' E 005°20'0 0.0
2018-Oct-03 12:02N 53°05' E 005°20'0 0.0
2018-Oct-03 11:59N 53°05' E 005°20'0 0.0
2018-Oct-03 11:29N 53°05' E 005°20'0 0.0
2018-Oct-03 11:02N 53°05' E 005°20'0 0.0
2018-Oct-03 10:56N 53°05' E 005°20'0 0.0
2018-Oct-03 10:29N 53°05' E 005°20'0 0.0
2018-Oct-03 10:02N 53°05' E 005°20'0 0.0
2018-Oct-03 09:59N 53°05' E 005°20'0 0.0
2018-Oct-03 09:29N 53°05' E 005°20'0 0.0
2018-Oct-03 09:02N 53°05' E 005°20'0 0.0
2018-Oct-03 08:59N 53°05' E 005°20'0 0.0
2018-Oct-03 08:23N 53°05' E 005°20'0 0.0
2018-Oct-03 08:02N 53°05' E 005°20'0 0.0
2018-Oct-03 07:59N 53°05' E 005°20'0 0.0
2018-Oct-03 07:29N 53°05' E 005°20'0 0.0
2018-Oct-03 07:02N 53°05' E 005°20'0 0.0
2018-Oct-03 06:59N 53°05' E 005°20'0 0.0
2018-Oct-03 06:29N 53°05' E 005°20'0 0.0
2018-Oct-03 06:02N 53°05' E 005°20'0 0.1
2018-Oct-03 05:59N 53°05' E 005°20'0 0.0
2018-Oct-03 05:29N 53°05' E 005°20'0 0.0
2018-Oct-03 05:02N 53°05' E 005°20'0 0.0
2018-Oct-03 04:59N 53°05' E 005°20'0 0.0
2018-Oct-03 04:29N 53°05' E 005°20'0 0.0
2018-Oct-03 04:02N 53°05' E 005°20'0 0.0
2018-Oct-03 03:59N 53°05' E 005°20'0 0.0
2018-Oct-03 03:29N 53°05' E 005°20'0 0.0
2018-Oct-03 03:02N 53°05' E 005°20'0 0.0
2018-Oct-03 02:59N 53°05' E 005°20'0 0.0
2018-Oct-03 02:29N 53°05' E 005°20'0 0.0
2018-Oct-03 02:02N 53°05' E 005°20'0 0.0
2018-Oct-03 01:59N 53°05' E 005°20'0 0.0
2018-Oct-03 01:29N 53°05' E 005°20'0 0.0
2018-Oct-03 01:02N 53°05' E 005°20'0 0.0
2018-Oct-03 00:59N 53°05' E 005°20'0 0.0
2018-Oct-03 00:29N 53°05' E 005°20'0 0.0
2018-Oct-03 00:02N 53°05' E 005°20'0 0.0
2018-Oct-02 23:59N 53°05' E 005°20'0 0.0
2018-Oct-02 23:29N 53°05' E 005°20'0 0.0
2018-Oct-02 23:02N 53°05' E 005°20'0 0.0
2018-Oct-02 22:59N 53°05' E 005°20'0 0.0
2018-Oct-02 22:29N 53°05' E 005°20'0 0.0
2018-Oct-02 22:02N 53°05' E 005°20'0 0.0
2018-Oct-02 21:59N 53°05' E 005°20'0 0.0
2018-Oct-02 21:29N 53°05' E 005°20'0 0.0
2018-Oct-02 21:02N 53°05' E 005°20'0 0.0
2018-Oct-02 20:59N 53°05' E 005°20'0 0.0
2018-Oct-02 20:29N 53°05' E 005°20'0 0.0
2018-Oct-02 20:02N 53°05' E 005°20'0 0.1
2018-Oct-02 19:59N 53°05' E 005°20'0 0.0
2018-Oct-02 19:29N 53°05' E 005°20'0 0.0
2018-Oct-02 18:59N 53°05' E 005°20'0 0.0
2018-Oct-02 18:29N 53°05' E 005°20'0 0.0
2018-Oct-02 18:02N 53°05' E 005°20'0 0.0
2018-Oct-02 17:59N 53°05' E 005°20'0 0.0
2018-Oct-02 17:29N 53°05' E 005°20'0 0.0
2018-Oct-02 17:02N 53°05' E 005°20'0 0.1
2018-Oct-02 16:59N 53°05' E 005°20'0 0.0
2018-Oct-02 16:29N 53°05' E 005°20'0 0.0
2018-Oct-02 16:02N 53°05' E 005°20'0 0.1
2018-Oct-02 15:59N 53°05' E 005°20'0 0.0
2018-Oct-02 15:29N 53°05' E 005°20'0 0.0
2018-Oct-02 14:59N 53°05' E 005°20'0 0.0
2018-Oct-02 14:02N 53°05' E 005°20'0 0.0
2018-Oct-02 13:59N 53°05' E 005°20'0 0.0
2018-Oct-02 13:29N 53°05' E 005°20'0 0.0
2018-Oct-02 13:02N 53°05' E 005°20'0 0.0
2018-Oct-02 12:59N 53°05' E 005°20'0 0.0
2018-Oct-02 12:29N 53°05' E 005°20'0 0.0
2018-Oct-02 12:01N 53°05' E 005°20'0 0.0
2018-Oct-02 11:59N 53°05' E 005°20'0 0.0
2018-Oct-02 11:28N 53°05' E 005°20'0 0.0
2018-Oct-02 11:01N 53°05' E 005°20'0 0.0
2018-Oct-02 10:55N 53°05' E 005°20'0 0.0
2018-Oct-02 10:28N 53°05' E 005°20'0 0.0
2018-Oct-02 10:01N 53°05' E 005°20'0 0.1
2018-Oct-02 09:58N 53°05' E 005°20'0 0.0
2018-Oct-02 09:28N 53°05' E 005°20'0 0.0
2018-Oct-02 09:01N 53°05' E 005°20'0 0.0
2018-Oct-02 08:58N 53°05' E 005°20'0 0.0
2018-Oct-02 08:28N 53°05' E 005°20'0 0.0
2018-Oct-02 08:01N 53°05' E 005°20'0 0.0
2018-Oct-02 07:58N 53°05' E 005°20'0 0.0
2018-Oct-02 07:28N 53°05' E 005°20'0 0.0
2018-Oct-02 07:01N 53°05' E 005°20'0 0.0
2018-Oct-02 06:58N 53°05' E 005°20'0 0.0
2018-Oct-02 06:28N 53°05' E 005°20'0 0.0
2018-Oct-02 06:01N 53°05' E 005°20'0 0.0
2018-Oct-02 05:58N 53°05' E 005°20'0 0.0
2018-Oct-02 05:28N 53°05' E 005°20'0 0.0
2018-Oct-02 05:01N 53°05' E 005°20'0 0.0
2018-Oct-02 04:58N 53°05' E 005°20'0 0.0
2018-Oct-02 04:28N 53°05' E 005°20'0 0.0
2018-Oct-02 04:01N 53°05' E 005°20'0 0.0
2018-Oct-02 03:58N 53°05' E 005°20'0 0.0
2018-Oct-02 03:28N 53°05' E 005°20'0 0.0
2018-Oct-02 03:01N 53°05' E 005°20'0 0.1
2018-Oct-02 02:58N 53°05' E 005°20'0 0.0
2018-Oct-02 02:28N 53°05' E 005°20'0 0.0
2018-Oct-02 02:01N 53°05' E 005°20'0 0.0
2018-Oct-02 01:58N 53°05' E 005°20'0 0.0
2018-Oct-02 01:28N 53°05' E 005°20'0 0.0
2018-Oct-02 01:01N 53°05' E 005°20'0 0.0
2018-Oct-02 00:58N 53°05' E 005°20'0 0.0
2018-Oct-02 00:28N 53°05' E 005°20'0 0.0
2018-Oct-02 00:01N 53°05' E 005°20'0 0.0
2018-Oct-01 23:58N 53°05' E 005°20'0 0.0
2018-Oct-01 23:28N 53°05' E 005°20'0 0.0
2018-Oct-01 23:01N 53°05' E 005°20'0 0.0
2018-Oct-01 22:58N 53°05' E 005°20'0 0.0
2018-Oct-01 22:28N 53°05' E 005°20'0 0.0
2018-Oct-01 22:01N 53°05' E 005°20'0 0.0
2018-Oct-01 21:58N 53°05' E 005°20'0 0.0
2018-Oct-01 21:28N 53°05' E 005°20'0 0.0
2018-Oct-01 21:01N 53°05' E 005°20'0 0.0
2018-Oct-01 20:58N 53°05' E 005°20'0 0.0
2018-Oct-01 20:28N 53°05' E 005°20'0 0.0
2018-Oct-01 20:01N 53°05' E 005°20'0 0.0
2018-Oct-01 19:58N 53°05' E 005°20'0 0.0
2018-Oct-01 19:28N 53°05' E 005°20'0 0.0
2018-Oct-01 19:01N 53°05' E 005°20'0 0.0
2018-Oct-01 18:58N 53°05' E 005°20'0 0.0
2018-Oct-01 18:28N 53°05' E 005°20'0 0.0
2018-Oct-01 18:01N 53°05' E 005°20'0 0.0
2018-Oct-01 17:58N 53°05' E 005°20'0 0.0
2018-Oct-01 17:28N 53°05' E 005°20'0 0.0
2018-Oct-01 16:58N 53°05' E 005°20'0 0.0
2018-Oct-01 16:28N 53°05' E 005°20'0 0.0
2018-Oct-01 16:01N 53°05' E 005°20'0 0.0
2018-Oct-01 15:58N 53°05' E 005°20'0 0.0
2018-Oct-01 15:28N 53°05' E 005°20'0 0.0
2018-Oct-01 15:01N 53°05' E 005°20'0 0.0
2018-Oct-01 14:58N 53°05' E 005°20'0 0.0
2018-Oct-01 14:28N 53°05' E 005°20'0 0.0
2018-Oct-01 13:58N 53°05' E 005°20'0 0.0
2018-Oct-01 13:28N 53°05' E 005°20'0 0.0
2018-Oct-01 13:01N 53°05' E 005°20'0 0.0
2018-Oct-01 12:58N 53°05' E 005°20'0 0.0
2018-Oct-01 12:28N 53°05' E 005°20'0 0.0
2018-Oct-01 12:01N 53°05' E 005°20'0 0.0
2018-Oct-01 11:58N 53°05' E 005°20'0 0.0
2018-Oct-01 11:28N 53°05' E 005°20'0 0.0
2018-Oct-01 11:01N 53°05' E 005°20'0 0.0
2018-Oct-01 10:58N 53°05' E 005°20'0 0.0
2018-Oct-01 10:28N 53°05' E 005°20'0 0.0
2018-Oct-01 10:01N 53°05' E 005°20'0 0.0
2018-Oct-01 09:58N 53°05' E 005°20'0 0.0
2018-Oct-01 09:28N 53°05' E 005°20'0 0.0
2018-Oct-01 08:58N 53°05' E 005°20'0 0.0
2018-Oct-01 08:28N 53°05' E 005°20'0 0.0
2018-Oct-01 08:01N 53°05' E 005°20'0 0.0
2018-Oct-01 07:58N 53°05' E 005°20'0 0.0
2018-Oct-01 07:28N 53°05' E 005°20'0 0.0
2018-Oct-01 07:01N 53°05' E 005°20'0 0.1
2018-Oct-01 06:58N 53°05' E 005°20'0 0.0
2018-Oct-01 06:28N 53°05' E 005°20'0 0.0
2018-Oct-01 06:01N 53°05' E 005°20'0 0.0
2018-Oct-01 05:58N 53°05' E 005°20'0 0.0
2018-Oct-01 05:28N 53°05' E 005°20'0 0.0
2018-Oct-01 05:01N 53°05' E 005°20'0 0.0
2018-Oct-01 04:58N 53°05' E 005°20'0 0.0
2018-Oct-01 04:28N 53°05' E 005°20'0 0.0
2018-Oct-01 04:01N 53°05' E 005°20'0 0.0
2018-Oct-01 03:58N 53°05' E 005°20'0 0.0
2018-Oct-01 03:28N 53°05' E 005°20'0 0.0
2018-Oct-01 03:01N 53°05' E 005°20'0 0.0
2018-Oct-01 02:58N 53°05' E 005°20'0 0.0
2018-Oct-01 02:28N 53°05' E 005°20'0 0.0
2018-Oct-01 02:01N 53°05' E 005°20'0 0.0
2018-Oct-01 01:58N 53°05' E 005°20'0 0.0
2018-Oct-01 01:28N 53°05' E 005°20'0 0.0
2018-Oct-01 01:01N 53°05' E 005°20'0 0.0
2018-Oct-01 00:58N 53°05' E 005°20'0 0.0
2018-Oct-01 00:28N 53°05' E 005°20'0 0.0
2018-Oct-01 00:01N 53°05' E 005°20'0 0.0
2018-Sep-30 23:58N 53°05' E 005°20'0 0.0
2018-Sep-30 23:28N 53°05' E 005°20'0 0.0
2018-Sep-30 23:01N 53°05' E 005°20'0 0.0
2018-Sep-30 22:58N 53°05' E 005°20'0 0.0
2018-Sep-30 22:30N 53°05' E 005°20'1 2.6
2018-Sep-30 22:03N 53°05' E 005°18'0 7.2
2018-Sep-30 22:00N 53°05' E 005°18'4 9.0
2018-Sep-30 21:30N 53°03' E 005°11'4 9.5
2018-Sep-30 21:03N 53°02' E 005°04'0 9.8
2018-Sep-30 21:00N 53°03' E 005°03'5 9.5
2018-Sep-30 20:30N 53°04' E 004°55'511.0
2018-Sep-30 20:03N 53°00' E 004°49'111.2
2018-Sep-30 20:00N 52°60' E 004°49'611.5
2018-Sep-30 19:30N 52°56' E 004°41'4 8.2
2018-Sep-30 19:03N 52°54' E 004°36'0 8.5
2018-Sep-30 19:00N 52°54' E 004°36'4 7.2
2018-Sep-30 18:30N 52°58' E 004°33'3 7.7
2018-Sep-30 18:03N 53°01' E 004°35'0 8.0
2018-Sep-30 18:00N 53°01' E 004°35'4 8.4
2018-Sep-30 17:30N 53°05' E 004°38'4 9.0
2018-Sep-30 17:03N 53°09' E 004°40'0 9.2
2018-Sep-30 17:00N 53°09' E 004°41'8 9.8
2018-Sep-30 16:14N 53°16' E 004°47'5 9.8
2018-Sep-30 15:45N 53°19' E 004°52'310.1
2018-Sep-30 15:29N 53°21' E 004°55'4 9.8
2018-Sep-30 15:03N 53°25' E 005°00'0 9.9
2018-Sep-30 15:00N 53°25' E 005°01'6 9.4
2018-Sep-30 14:21N 53°29' E 005°09'19 6.9
2018-Sep-30 11:33N 53°40' E 005°35'0 6.2
2018-Sep-30 11:29N 53°40' E 005°36'87 5.6
2018-Sep-29 20:03N 54°02' E 007°59'3 6.8
2018-Sep-29 19:40N 54°01' E 008°03'1 7.1
2018-Sep-29 19:27N 54°01' E 008°06'3 7.5
2018-Sep-29 19:03N 54°01' E 008°11'0 7.7
2018-Sep-29 19:00N 54°01' E 008°12'4 7.8
2018-Sep-29 18:30N 54°00' E 008°18'4 8.5
2018-Sep-29 18:03N 53°59' E 008°25'1 9.3
2018-Sep-29 18:00N 53°59' E 008°25'510.4
2018-Sep-29 17:30N 53°58' E 008°34'410.0
2018-Sep-29 17:03N 53°56' E 008°40'110.8
2018-Sep-29 17:00N 53°55' E 008°41'5 9.8
2018-Sep-29 16:30N 53°51' E 008°46'4 8.7
2018-Sep-29 16:03N 53°51' E 008°52'0 6.5
2018-Sep-29 16:00N 53°51' E 008°53'3 6.7
2018-Sep-29 15:30N 53°51' E 008°58'3 6.6
2018-Sep-29 15:03N 53°52' E 009°03'0 5.6
2018-Sep-29 15:00N 53°52' E 009°04'3 6.5
2018-Sep-29 14:30N 53°53' E 009°09'1 2.0
2018-Sep-29 14:00N 53°54' E 009°10'3 6.2
2018-Sep-29 13:29N 53°57' E 009°13'1 3.4
2018-Sep-29 13:03N 53°58' E 009°15'1 9.3
2018-Sep-29 12:59N 53°58' E 009°16'4 8.9
2018-Sep-29 12:30N 54°02' E 009°18'5 8.9
2018-Sep-29 11:59N 54°07' E 009°20'4 8.1
2018-Sep-29 11:30N 54°10' E 009°24'4 8.6
2018-Sep-29 11:03N 54°11' E 009°30'0 8.9
2018-Sep-29 11:00N 54°11' E 009°31'4 8.4
2018-Sep-29 10:30N 54°14' E 009°36'4 8.2
2018-Sep-29 10:03N 54°17' E 009°39'0 8.6
2018-Sep-29 10:00N 54°17' E 009°40'4 7.8
2018-Sep-29 09:30N 54°20' E 009°45'4 8.3
2018-Sep-29 09:03N 54°22' E 009°50'0 8.9
2018-Sep-29 09:00N 54°22' E 009°51'4 8.6
2018-Sep-29 08:30N 54°21' E 009°58'4 8.4
2018-Sep-29 08:03N 54°22' E 010°04'0 8.5
2018-Sep-29 08:00N 54°22' E 010°05'2 4.1
2018-Sep-29 07:30N 54°22' E 010°08'0 0.5
2018-Sep-29 07:03N 54°22' E 010°09'0 6.0
2018-Sep-29 07:00N 54°22' E 010°09'0 0.9
2018-Sep-29 06:30N 54°22' E 010°10'0 0.2
2018-Sep-29 06:03N 54°22' E 010°10'0 0.5
2018-Sep-29 06:00N 54°22' E 010°10'0 1.0
2018-Sep-29 05:30N 54°22' E 010°09'4 8.2
2018-Sep-29 05:03N 54°25' E 010°12'0 8.7
2018-Sep-29 05:00N 54°26' E 010°13'4 7.9
2018-Sep-29 04:30N 54°28' E 010°18'4 8.5
2018-Sep-29 04:03N 54°29' E 010°25'0 8.5
2018-Sep-29 04:00N 54°29' E 010°25'4 8.4
2018-Sep-29 03:30N 54°30' E 010°32'4 8.3
2018-Sep-29 03:03N 54°31' E 010°39'1 8.1
2018-Sep-29 02:55N 54°31' E 010°40'3 8.0
2018-Sep-29 02:30N 54°32' E 010°46'3 7.9
2018-Sep-29 02:03N 54°33' E 010°52'1 7.9
2018-Sep-29 02:00N 54°33' E 010°53'4 7.8
2018-Sep-29 01:30N 54°33' E 010°59'3 7.6
2018-Sep-29 01:03N 54°33' E 011°05'0 7.4
2018-Sep-29 01:00N 54°33' E 011°06'4 7.5
2018-Sep-29 00:26N 54°32' E 011°13'3 7.4
2018-Sep-29 00:03N 54°31' E 011°17'0 7.1
2018-Sep-29 00:00N 54°30' E 011°17'4 7.1
2018-Sep-28 23:28N 54°28' E 011°23'3 7.0
2018-Sep-28 23:03N 54°27' E 011°27'0 7.0
2018-Sep-28 23:00N 54°27' E 011°28'12 6.9
2018-Sep-28 21:20N 54°20' E 011°44'2 6.8
2018-Sep-28 21:03N 54°19' E 011°46'0 7.2
2018-Sep-28 21:00N 54°19' E 011°47'4 7.3
2018-Sep-28 20:30N 54°17' E 011°52'3 6.5
2018-Sep-28 20:03N 54°15' E 011°56'0 6.5
2018-Sep-28 20:00N 54°15' E 011°57'3 6.1
2018-Sep-28 19:30N 54°13' E 012°01'3 5.6
2018-Sep-28 19:03N 54°12' E 012°05'0 6.5
2018-Sep-28 19:00N 54°11' E 012°05'4 6.6
2018-Sep-28 18:28N 54°08' E 012°06'2 5.4
2018-Sep-28 18:02N 54°06' E 012°07'0 5.4
2018-Sep-28 18:00N 54°06' E 012°07'0 0.3
2018-Sep-28 17:30N 54°06' E 012°08'0 0.0
2018-Sep-28 17:03N 54°06' E 012°08'0 0.0
2018-Sep-28 17:00N 54°06' E 012°08'0 0.0
2018-Sep-28 16:30N 54°06' E 012°08'0 0.0
2018-Sep-28 15:33N 54°06' E 012°08'0 0.0
2018-Sep-28 15:27N 54°06' E 012°08'0 0.0
2018-Sep-28 15:03N 54°06' E 012°08'0 0.1
2018-Sep-28 15:00N 54°06' E 012°08'0 0.0
2018-Sep-28 14:09N 54°06' E 012°08'0 0.0
2018-Sep-28 13:30N 54°06' E 012°08'0 0.0
2018-Sep-28 13:03N 54°06' E 012°08'0 0.0
2018-Sep-28 13:00N 54°06' E 012°08'0 0.0
2018-Sep-28 12:21N 54°06' E 012°08'0 0.0
2018-Sep-28 11:57N 54°06' E 012°08'0 0.0
2018-Sep-28 10:12N 54°06' E 012°08'0 0.0
2018-Sep-28 10:03N 54°06' E 012°08'0 0.1
2018-Sep-28 10:00N 54°06' E 012°08'0 0.0
2018-Sep-28 09:06N 54°06' E 012°08'0 0.0
2018-Sep-28 09:03N 54°06' E 012°08'0 0.0
2018-Sep-28 09:00N 54°06' E 012°08'0 0.0
2018-Sep-28 08:30N 54°06' E 012°08'0 0.0
2018-Sep-28 08:00N 54°06' E 012°08'0 0.0
2018-Sep-28 07:21N 54°06' E 012°08'0 0.1
2018-Sep-28 07:03N 54°06' E 012°08'0 0.1
2018-Sep-28 07:00N 54°06' E 012°08'0 0.0
2018-Sep-28 06:30N 54°06' E 012°08'0 0.0
2018-Sep-28 06:00N 54°06' E 012°08'0 0.0
2018-Sep-28 05:27N 54°06' E 012°08'0 0.0
2018-Sep-28 05:00N 54°06' E 012°08'0 0.0
2018-Sep-28 04:30N 54°06' E 012°08'0 0.0
2018-Sep-28 04:03N 54°06' E 012°08'0 0.0
2018-Sep-28 03:54N 54°06' E 012°08'0 0.0
2018-Sep-28 03:24N 54°06' E 012°08'0 0.0
2018-Sep-28 02:57N 54°06' E 012°08'0 0.0
2018-Sep-28 02:24N 54°06' E 012°08'0 0.0
2018-Sep-28 02:03N 54°06' E 012°08'0 0.0
2018-Sep-28 01:54N 54°06' E 012°08'0 0.0
2018-Sep-28 00:27N 54°06' E 012°08'0 0.0
2018-Sep-27 23:57N 54°06' E 012°08'0 0.0
2018-Sep-27 23:27N 54°06' E 012°08'0 0.0
2018-Sep-27 23:00N 54°06' E 012°08'0 0.0
2018-Sep-27 22:27N 54°06' E 012°08'0 0.0
2018-Sep-27 20:27N 54°06' E 012°08'0 0.0
2018-Sep-27 20:00N 54°06' E 012°08'0 0.0
2018-Sep-27 19:30N 54°06' E 012°08'0 0.0
2018-Sep-27 19:03N 54°06' E 012°08'0 0.1
2018-Sep-27 19:00N 54°06' E 012°08'0 0.0
2018-Sep-27 18:30N 54°06' E 012°08'0 0.0
2018-Sep-27 18:00N 54°06' E 012°08'0 0.0
2018-Sep-27 17:30N 54°06' E 012°08'0 0.0
2018-Sep-27 17:03N 54°06' E 012°08'0 0.0
2018-Sep-27 16:54N 54°06' E 012°08'0 0.0
2018-Sep-27 16:12N 54°06' E 012°08'0 0.0
2018-Sep-27 16:00N 54°06' E 012°08'0 0.0
2018-Sep-27 15:30N 54°06' E 012°08'0 0.0
2018-Sep-27 15:00N 54°06' E 012°08'0 0.0
2018-Sep-27 14:21N 54°06' E 012°08'0 0.0
2018-Sep-27 13:54N 54°06' E 012°08'0 0.0
2018-Sep-27 13:30N 54°06' E 012°08'0 0.0
2018-Sep-27 13:03N 54°06' E 012°08'0 0.0
2018-Sep-27 13:00N 54°06' E 012°08'0 0.0
2018-Sep-27 10:42N 54°06' E 012°08'0 0.0
2018-Sep-27 10:15N 54°06' E 012°08'0 0.0
2018-Sep-27 09:57N 54°06' E 012°08'0 0.0
2018-Sep-27 09:12N 54°06' E 012°08'0 0.0
2018-Sep-27 09:00N 54°06' E 012°08'0 0.0
2018-Sep-27 08:12N 54°06' E 012°08'0 0.0
2018-Sep-27 07:57N 54°06' E 012°08'0 0.0
2018-Sep-27 07:30N 54°06' E 012°08'0 0.0
2018-Sep-27 06:54N 54°06' E 012°08'0 0.0
2018-Sep-27 06:30N 54°06' E 012°08'0 0.0
2018-Sep-27 06:03N 54°06' E 012°08'0 0.0
2018-Sep-27 05:57N 54°06' E 012°08'0 0.0
2018-Sep-27 05:27N 54°06' E 012°08'0 0.0
2018-Sep-27 05:03N 54°06' E 012°08'0 0.0
2018-Sep-27 04:54N 54°06' E 012°08'0 0.0
2018-Sep-27 04:30N 54°06' E 012°08'0 0.0
2018-Sep-27 04:03N 54°06' E 012°08'0 0.0
2018-Sep-27 03:39N 54°06' E 012°08'0 0.0
2018-Sep-27 03:18N 54°06' E 012°08'0 0.0
2018-Sep-27 02:12N 54°06' E 012°08'0 0.0
2018-Sep-27 02:00N 54°06' E 012°08'0 0.0
2018-Sep-27 01:30N 54°06' E 012°08'0 0.0
2018-Sep-27 01:03N 54°06' E 012°08'0 0.0
2018-Sep-27 00:57N 54°06' E 012°08'0 0.0
2018-Sep-27 00:30N 54°06' E 012°08'0 0.0
2018-Sep-27 00:03N 54°06' E 012°08'0 0.0
2018-Sep-26 23:57N 54°06' E 012°08'0 0.0
2018-Sep-26 22:50N 54°06' E 012°08'0 0.0
2018-Sep-26 22:29N 54°06' E 012°08'0 0.0
2018-Sep-26 22:02N 54°06' E 012°08'0 0.0
2018-Sep-26 21:56N 54°06' E 012°08'0 0.0
2018-Sep-26 21:26N 54°06' E 012°08'0 0.0
2018-Sep-26 21:02N 54°06' E 012°08'0 0.0
2018-Sep-26 20:59N 54°06' E 012°08'0 0.0
2018-Sep-26 20:29N 54°06' E 012°08'0 0.0
2018-Sep-26 19:59N 54°06' E 012°08'0 0.0
2018-Sep-26 19:26N 54°06' E 012°08'0 0.0
2018-Sep-26 19:02N 54°06' E 012°08'0 0.0
2018-Sep-26 18:59N 54°06' E 012°08'0 0.0
2018-Sep-26 18:29N 54°06' E 012°08'0 0.0
2018-Sep-26 18:02N 54°06' E 012°08'0 0.0
2018-Sep-26 17:50N 54°06' E 012°08'0 0.0
2018-Sep-26 17:23N 54°06' E 012°08'0 0.0
2018-Sep-26 16:53N 54°06' E 012°08'0 0.0
2018-Sep-26 16:26N 54°06' E 012°08'0 0.0
2018-Sep-26 15:56N 54°06' E 012°08'0 0.0
2018-Sep-26 15:26N 54°06' E 012°08'0 0.0
2018-Sep-26 15:02N 54°06' E 012°08'0 0.0
2018-Sep-26 14:38N 54°06' E 012°08'0 0.0
2018-Sep-26 14:23N 54°06' E 012°08'0 0.0
2018-Sep-26 13:11N 54°06' E 012°08'0 0.0
2018-Sep-26 12:53N 54°06' E 012°08'0 0.0
2018-Sep-26 12:29N 54°06' E 012°08'0 0.0
2018-Sep-26 12:02N 54°06' E 012°08'0 0.0
2018-Sep-26 11:44N 54°06' E 012°08'0 0.0
2018-Sep-26 11:29N 54°06' E 012°08'0 0.0
2018-Sep-26 10:53N 54°06' E 012°08'0 0.0
2018-Sep-26 10:23N 54°06' E 012°08'0 0.0
2018-Sep-26 10:02N 54°06' E 012°08'0 0.0
2018-Sep-26 09:59N 54°06' E 012°08'0 0.0
2018-Sep-26 09:29N 54°06' E 012°08'0 0.0
2018-Sep-26 08:53N 54°06' E 012°08'0 0.0
2018-Sep-26 08:08N 54°06' E 012°08'0 0.0
2018-Sep-26 08:02N 54°06' E 012°08'0 0.0
2018-Sep-26 07:59N 54°06' E 012°08'0 0.0
2018-Sep-26 07:26N 54°06' E 012°08'0 0.0
2018-Sep-26 07:02N 54°06' E 012°08'0 0.0
2018-Sep-26 06:47N 54°06' E 012°08'0 0.0
2018-Sep-26 06:26N 54°06' E 012°08'0 0.0
2018-Sep-26 04:41N 54°06' E 012°08'0 0.0
2018-Sep-26 04:17N 54°06' E 012°08'0 0.0
2018-Sep-26 03:59N 54°06' E 012°08'0 0.0
2018-Sep-26 03:26N 54°06' E 012°08'0 0.0
2018-Sep-26 02:56N 54°06' E 012°08'0 0.0
2018-Sep-26 02:29N 54°06' E 012°08'0 0.0
2018-Sep-26 02:02N 54°06' E 012°08'0 0.1
2018-Sep-26 01:59N 54°06' E 012°08'0 0.0
2018-Sep-26 00:32N 54°06' E 012°08'0 0.0
2018-Sep-26 00:16N 54°06' E 012°08'0 0.5
2018-Sep-26 00:03N 54°06' E 012°07'0 0.9
2018-Sep-26 00:00N 54°06' E 012°07'3 6.8
2018-Sep-25 23:30N 54°09' E 012°06'3 7.2
2018-Sep-25 23:03N 54°12' E 012°05'0 8.6
2018-Sep-25 23:00N 54°13' E 012°05'4 7.9
2018-Sep-25 22:29N 54°16' E 012°07'3 7.1
2018-Sep-25 22:03N 54°19' E 012°09'0 7.0
2018-Sep-25 22:00N 54°20' E 012°09'69 7.9
2018-Sep-25 13:16N 55°01' E 013°45'2 8.4
2018-Sep-25 13:03N 55°02' E 013°48'1 8.6
2018-Sep-25 12:59N 55°02' E 013°49'4 8.6
2018-Sep-25 12:30N 55°03' E 013°56'4 8.5
2018-Sep-25 12:03N 55°05' E 014°02'0 8.6
2018-Sep-25 12:00N 55°05' E 014°02'5 9.0
2018-Sep-25 11:30N 55°08' E 014°08'4 9.4
2018-Sep-25 11:03N 55°11' E 014°13'0 9.6
2018-Sep-25 11:00N 55°11' E 014°13'5 9.5
2018-Sep-25 10:30N 55°15' E 014°19'4 9.0
2018-Sep-25 10:03N 55°18' E 014°24'1 9.0
2018-Sep-25 10:00N 55°18' E 014°24'5 9.3
2018-Sep-25 09:30N 55°22' E 014°29'4 9.3
2018-Sep-25 09:03N 55°25' E 014°34'0 8.9
2018-Sep-25 09:00N 55°26' E 014°35'4 8.8
2018-Sep-25 08:30N 55°29' E 014°40'4 9.0
2018-Sep-25 08:03N 55°31' E 014°46'0 9.2
2018-Sep-25 08:00N 55°31' E 014°47'5 9.1
2018-Sep-25 07:30N 55°33' E 014°54'4 9.1
2018-Sep-25 07:03N 55°35' E 015°00'0 8.9
2018-Sep-25 07:00N 55°35' E 015°01'5 9.1
2018-Sep-25 06:30N 55°38' E 015°08'4 9.0
2018-Sep-25 06:03N 55°40' E 015°14'0 8.7
2018-Sep-25 06:00N 55°40' E 015°15'4 8.9
2018-Sep-25 05:30N 55°42' E 015°21'4 8.8
2018-Sep-25 05:03N 55°44' E 015°28'0 8.3
2018-Sep-25 05:00N 55°44' E 015°28'4 8.7
2018-Sep-25 04:30N 55°46' E 015°35'4 8.8
2018-Sep-25 04:03N 55°48' E 015°41'0 9.2
2018-Sep-25 04:00N 55°48' E 015°42'5 9.3
2018-Sep-25 03:30N 55°51' E 015°49'4 9.2
2018-Sep-25 03:03N 55°53' E 015°56'0 9.1
2018-Sep-25 03:00N 55°53' E 015°56'5 9.3
2018-Sep-25 02:30N 55°55' E 016°04'4 9.5
2018-Sep-25 02:03N 55°57' E 016°10'0 9.7
2018-Sep-25 02:00N 55°57' E 016°11'5 9.5
2018-Sep-25 01:30N 55°60' E 016°18'4 9.2
2018-Sep-25 01:03N 56°02' E 016°25'0 9.2
2018-Sep-25 01:00N 56°02' E 016°26'4 9.0
2018-Sep-25 00:30N 56°04' E 016°32'4 8.9
2018-Sep-25 00:03N 56°06' E 016°39'0 8.8
2018-Sep-25 00:00N 56°07' E 016°39'5 9.0
2018-Sep-24 23:30N 56°09' E 016°46'  

Dump ship's entire track history